www.cux-wetter.de
Wetterdaten: Sonntag, 24.03.2013
Datum Zeit Temp. A. Feuchte A. Luftdruck Regen Wind Richtung Richtung Sonnenschein Solar Taupunkt Windchill Windben
24.03.2013 00:00 -3,3 C 66 % 1026,5 hPa 0,0 l/m 32,7 km/h (5 Bft) O-SO 120 0 min 0 W/m -8,7 C -18,9 C 32,7 km/h (5 Bft)
24.03.2013 00:15 -3,4 C 66 % 1026,5 hPa 0,0 l/m 34,7 km/h (5 Bft) SO 125 0 min 0 W/m -8,8 C -19,6 C 34,7 km/h (5 Bft)
24.03.2013 00:30 -3,4 C 66 % 1026,5 hPa 0,0 l/m 34,1 km/h (5 Bft) SO 125 0 min 0 W/m -8,8 C -19,5 C 34,1 km/h (5 Bft)
24.03.2013 00:45 -3,4 C 67 % 1026,5 hPa 0,0 l/m 33,9 km/h (5 Bft) SO 135 0 min 0 W/m -8,6 C -19,4 C 33,9 km/h (5 Bft)
24.03.2013 01:01 -3,4 C 67 % 1026,5 hPa 0,0 l/m 28,1 km/h (5 Bft) SO 140 0 min 0 W/m -8,6 C -17,5 C 28,1 km/h (5 Bft)
24.03.2013 01:15 -3,4 C 68 % 1026,5 hPa 0,0 l/m 29,6 km/h (5 Bft) O-SO 120 0 min 0 W/m -8,4 C -18,1 C 29,6 km/h (5 Bft)
24.03.2013 01:30 -3,4 C 68 % 1026,5 hPa 0,0 l/m 28,3 km/h (5 Bft) O-SO 120 0 min 0 W/m -8,4 C -17,6 C 28,3 km/h (5 Bft)
24.03.2013 01:46 -3,4 C 69 % 1026,5 hPa 0,0 l/m 26,9 km/h (4 Bft) O-SO 115 0 min 0 W/m -8,2 C -17,1 C 26,9 km/h (4 Bft)
24.03.2013 02:00 -3,4 C 69 % 1026,5 hPa 0,0 l/m 34,2 km/h (5 Bft) O-SO 120 0 min 0 W/m -8,2 C -19,5 C 34,2 km/h (5 Bft)
24.03.2013 02:15 -3,4 C 69 % 1026,5 hPa 0,0 l/m 32,5 km/h (5 Bft) O-SO 120 0 min 0 W/m -8,2 C -19,0 C 32,5 km/h (5 Bft)
24.03.2013 02:30 -3,4 C 69 % 1026,5 hPa 0,0 l/m 25,8 km/h (4 Bft) O-SO 115 0 min 0 W/m -8,2 C -16,7 C 25,8 km/h (4 Bft)
24.03.2013 02:46 -3,4 C 69 % 1026,5 hPa 0,0 l/m 27,0 km/h (5 Bft) SO 125 0 min 0 W/m -8,2 C -17,1 C 27,0 km/h (5 Bft)
24.03.2013 03:00 -3,3 C 69 % 1025,5 hPa 0,0 l/m 27,7 km/h (5 Bft) SO 135 0 min 0 W/m -8,2 C -17,2 C 27,7 km/h (5 Bft)
24.03.2013 03:15 -3,2 C 69 % 1025,5 hPa 0,0 l/m 30,7 km/h (5 Bft) O-SO 115 0 min 0 W/m -8,1 C -18,1 C 30,7 km/h (5 Bft)
24.03.2013 03:31 -3,3 C 69 % 1025,5 hPa 0,0 l/m 37,8 km/h (5 Bft) SO 130 0 min 0 W/m -8,2 C -20,3 C 37,8 km/h (5 Bft)
24.03.2013 03:46 -3,3 C 70 % 1025,5 hPa 0,0 l/m 24,0 km/h (4 Bft) O 95 0 min 0 W/m -8,0 C -15,8 C 24,0 km/h (4 Bft)
24.03.2013 04:00 -3,4 C 71 % 1025,5 hPa 0,0 l/m 29,1 km/h (5 Bft) O-SO 115 0 min 0 W/m -7,9 C -17,9 C 29,1 km/h (5 Bft)
24.03.2013 04:15 -3,4 C 70 % 1025,5 hPa 0,0 l/m 25,8 km/h (4 Bft) O-SO 115 0 min 0 W/m -8,1 C -16,7 C 25,8 km/h (4 Bft)
24.03.2013 04:31 -3,4 C 70 % 1025,5 hPa 0,0 l/m 39,1 km/h (6 Bft) SO 125 0 min 0 W/m -8,1 C -20,8 C 39,1 km/h (6 Bft)
24.03.2013 04:45 -3,4 C 69 % 1025,5 hPa 0,0 l/m 27,7 km/h (5 Bft) SO 125 0 min 0 W/m -8,2 C -17,4 C 27,7 km/h (5 Bft)
24.03.2013 05:00 -3,4 C 69 % 1025,5 hPa 0,0 l/m 28,5 km/h (5 Bft) SO 145 0 min 0 W/m -8,2 C -17,7 C 28,5 km/h (5 Bft)
24.03.2013 05:15 -3,4 C 70 % 1025,5 hPa 0,0 l/m 27,3 km/h (5 Bft) O-SO 120 0 min 0 W/m -8,1 C -17,2 C 27,3 km/h (5 Bft)
24.03.2013 05:31 -3,3 C 70 % 1025,5 hPa 0,0 l/m 33,3 km/h (5 Bft) O-SO 115 0 min 0 W/m -8,0 C -19,1 C 33,3 km/h (5 Bft)
24.03.2013 05:45 -3,3 C 69 % 1025,5 hPa 0,0 l/m 34,1 km/h (5 Bft) SO 125 0 min 0 W/m -8,2 C -19,3 C 34,1 km/h (5 Bft)
24.03.2013 06:00 -3,4 C 69 % 1025,5 hPa 0,0 l/m 29,7 km/h (5 Bft) SO 130 0 min 0 W/m -8,2 C -18,1 C 29,7 km/h (5 Bft)
24.03.2013 06:16 -3,4 C 70 % 1025,5 hPa 0,0 l/m 25,5 km/h (4 Bft) O-SO 105 0 min 0 W/m -8,1 C -16,5 C 25,5 km/h (4 Bft)
24.03.2013 06:31 -3,5 C 70 % 1025,5 hPa 0,0 l/m 23,1 km/h (4 Bft) O-SO 110 0 min 0 W/m -8,2 C -15,6 C 23,1 km/h (4 Bft)
24.03.2013 06:45 -3,5 C 70 % 1025,5 hPa 0,0 l/m 25,8 km/h (4 Bft) O-SO 120 0 min 0 W/m -8,2 C -16,8 C 25,8 km/h (4 Bft)
24.03.2013 07:00 -3,5 C 69 % 1025,5 hPa 0,0 l/m 23,6 km/h (4 Bft) O-SO 115 0 min 0 W/m -8,3 C -15,9 C 23,6 km/h (4 Bft)
24.03.2013 07:16 -3,4 C 68 % 1025,5 hPa 0,0 l/m 21,6 km/h (4 Bft) O-SO 115 0 min 0 W/m -8,4 C -14,8 C 21,6 km/h (4 Bft)
24.03.2013 07:30 -3,4 C 67 % 1025,5 hPa 0,0 l/m 24,0 km/h (4 Bft) O-SO 105 0 min 0 W/m -8,6 C -15,9 C 24,0 km/h (4 Bft)
24.03.2013 07:45 -3,4 C 66 % 1026,5 hPa 0,0 l/m 28,2 km/h (5 Bft) S-SO 150 0 min 0 W/m -8,8 C -17,6 C 28,2 km/h (5 Bft)
24.03.2013 08:00 -3,2 C 66 % 1026,5 hPa 0,0 l/m 23,3 km/h (4 Bft) SO 140 0 min 0 W/m -8,6 C -15,3 C 23,3 km/h (4 Bft)
24.03.2013 08:15 -3,2 C 65 % 1026,5 hPa 0,0 l/m 26,5 km/h (4 Bft) SO 140 0 min 0 W/m -8,8 C -16,7 C 26,5 km/h (4 Bft)
24.03.2013 08:30 -3,2 C 64 % 1026,5 hPa 0,0 l/m 30,0 km/h (5 Bft) O 100 0 min 0 W/m -9,0 C -17,9 C 30,0 km/h (5 Bft)
24.03.2013 08:45 -3,0 C 64 % 1026,5 hPa 0,0 l/m 26,1 km/h (4 Bft) O-SO 115 0 min 0 W/m -8,8 C -16,2 C 26,1 km/h (4 Bft)
24.03.2013 09:00 -2,8 C 64 % 1026,5 hPa 0,0 l/m 24,9 km/h (4 Bft) SO 130 0 min 0 W/m -8,6 C -15,5 C 24,9 km/h (4 Bft)
24.03.2013 09:15 -2,4 C 63 % 1026,5 hPa 0,0 l/m 29,8 km/h (5 Bft) O-SO 120 0 min 0 W/m -8,5 C -16,7 C 29,8 km/h (5 Bft)
24.03.2013 09:30 -2,2 C 63 % 1026,5 hPa 0,0 l/m 26,8 km/h (4 Bft) O-SO 110 0 min 0 W/m -8,3 C -15,4 C 26,8 km/h (4 Bft)
24.03.2013 09:45 -1,6 C 63 % 1026,5 hPa 0,0 l/m 29,5 km/h (5 Bft) O-SO 115 0 min 0 W/m -7,7 C -15,5 C 29,5 km/h (5 Bft)
24.03.2013 10:00 -1,0 C 63 % 1025,5 hPa 0,0 l/m 26,8 km/h (4 Bft) SO 125 0 min 0 W/m -7,1 C -13,7 C 26,8 km/h (4 Bft)
24.03.2013 10:15 -0,4 C 63 % 1025,5 hPa 0,0 l/m 26,5 km/h (4 Bft) SO 135 0 min 0 W/m -6,6 C -12,8 C 26,5 km/h (4 Bft)
24.03.2013 10:30 0,3 C 61 % 1025,5 hPa 0,0 l/m 32,7 km/h (5 Bft) SO 125 0 min 0 W/m -6,3 C -13,8 C 32,7 km/h (5 Bft)
24.03.2013 10:45 0,7 C 59 % 1025,5 hPa 0,0 l/m 27,3 km/h (5 Bft) S-SO 150 0 min 0 W/m -6,4 C -11,6 C 27,3 km/h (5 Bft)
24.03.2013 11:00 0,7 C 58 % 1025,5 hPa 0,0 l/m 31,8 km/h (5 Bft) SO 130 0 min 0 W/m -6,6 C -12,9 C 31,8 km/h (5 Bft)
24.03.2013 11:15 0,9 C 57 % 1025,5 hPa 0,0 l/m 32,6 km/h (5 Bft) SO 125 0 min 0 W/m -6,6 C -12,9 C 32,6 km/h (5 Bft)
24.03.2013 11:30 1,4 C 57 % 1025,5 hPa 0,0 l/m 35,8 km/h (5 Bft) SO 130 0 min 0 W/m -6,2 C -13,0 C 35,8 km/h (5 Bft)
24.03.2013 11:45 1,7 C 57 % 1025,5 hPa 0,0 l/m 28,5 km/h (5 Bft) O-SO 120 0 min 0 W/m -5,9 C -10,6 C 28,5 km/h (5 Bft)
24.03.2013 12:00 1,9 C 56 % 1025,5 hPa 0,0 l/m 31,2 km/h (5 Bft) SO 125 0 min 0 W/m -5,9 C -11,1 C 31,2 km/h (5 Bft)
24.03.2013 12:15 2,1 C 56 % 1025,5 hPa 0,0 l/m 38,1 km/h (6 Bft) O-SO 120 0 min 0 W/m -5,7 C -12,4 C 38,1 km/h (6 Bft)
24.03.2013 12:30 2,3 C 56 % 1025,5 hPa 0,0 l/m 35,0 km/h (5 Bft) SO 125 0 min 0 W/m -5,6 C -11,5 C 35,0 km/h (5 Bft)
24.03.2013 12:45 2,5 C 56 % 1024,5 hPa 0,3 l/m 31,2 km/h (5 Bft) SO 135 0 min 0 W/m -5,4 C -10,2 C 31,2 km/h (5 Bft)
24.03.2013 13:00 2,7 C 55 % 1024,5 hPa 0,0 l/m 34,6 km/h (5 Bft) SO 135 0 min 0 W/m -5,4 C -10,8 C 34,6 km/h (5 Bft)
24.03.2013 13:15 2,9 C 55 % 1024,5 hPa 0,0 l/m 27,8 km/h (5 Bft) SO 135 0 min 0 W/m -5,2 C -8,7 C 27,8 km/h (5 Bft)
24.03.2013 13:30 2,8 C 55 % 1024,5 hPa 0,0 l/m 34,0 km/h (5 Bft) SO 130 0 min 0 W/m -5,3 C -10,5 C 34,0 km/h (5 Bft)
24.03.2013 13:45 3,2 C 55 % 1024,5 hPa 0,0 l/m 33,7 km/h (5 Bft) SO 130 0 min 0 W/m -5,0 C -9,9 C 33,7 km/h (5 Bft)
24.03.2013 14:00 3,1 C 54 % 1024,5 hPa 0,0 l/m 33,9 km/h (5 Bft) SO 135 0 min 0 W/m -5,3 C -10,0 C 33,9 km/h (5 Bft)
24.03.2013 14:15 3,1 C 56 % 1024,5 hPa 0,0 l/m 32,5 km/h (5 Bft) O-SO 110 0 min 0 W/m -4,8 C -9,7 C 32,5 km/h (5 Bft)
24.03.2013 14:30 3,2 C 54 % 1024,5 hPa 0,0 l/m 33,1 km/h (5 Bft) SO 125 0 min 0 W/m -5,2 C -9,7 C 33,1 km/h (5 Bft)
24.03.2013 14:45 3,0 C 55 % 1024,5 hPa 0,0 l/m 27,1 km/h (5 Bft) SO 130 0 min 0 W/m -5,1 C -8,3 C 27,1 km/h (5 Bft)
24.03.2013 15:01 3,1 C 54 % 1023,5 hPa 0,0 l/m 35,0 km/h (5 Bft) SO 125 0 min 0 W/m -5,3 C -10,3 C 35,0 km/h (5 Bft)
24.03.2013 15:15 3,1 C 56 % 1023,5 hPa 0,0 l/m 29,8 km/h (5 Bft) O-SO 120 0 min 0 W/m -4,8 C -9,0 C 29,8 km/h (5 Bft)
24.03.2013 15:30 3,0 C 56 % 1023,5 hPa 0,0 l/m 37,9 km/h (6 Bft) SO 135 0 min 0 W/m -4,9 C -11,1 C 37,9 km/h (6 Bft)
24.03.2013 15:46 3,0 C 58 % 1023,5 hPa 0,0 l/m 24,7 km/h (4 Bft) SO 130 0 min 0 W/m -4,4 C -7,6 C 24,7 km/h (4 Bft)
24.03.2013 16:00 2,8 C 58 % 1023,5 hPa 0,0 l/m 30,2 km/h (5 Bft) SO 125 0 min 0 W/m -4,6 C -9,5 C 30,2 km/h (5 Bft)
24.03.2013 16:15 2,4 C 58 % 1023,5 hPa 0,0 l/m 27,3 km/h (5 Bft) SO 130 0 min 0 W/m -5,0 C -9,2 C 27,3 km/h (5 Bft)
24.03.2013 16:30 2,1 C 59 % 1023,5 hPa 0,0 l/m 41,7 km/h (6 Bft) SO 130 0 min 0 W/m -5,1 C -13,1 C 41,7 km/h (6 Bft)
24.03.2013 16:46 1,9 C 59 % 1023,5 hPa 0,0 l/m 35,0 km/h (5 Bft) O-SO 120 0 min 0 W/m -5,2 C -12,0 C 35,0 km/h (5 Bft)
24.03.2013 17:00 1,7 C 62 % 1023,5 hPa 0,0 l/m 29,6 km/h (5 Bft) SO 125 0 min 0 W/m -4,8 C -10,9 C 29,6 km/h (5 Bft)
24.03.2013 17:15 1,5 C 62 % 1023,5 hPa 0,0 l/m 32,9 km/h (5 Bft) SO 135 0 min 0 W/m -5,0 C -12,1 C 32,9 km/h (5 Bft)
24.03.2013 17:31 1,2 C 64 % 1023,5 hPa 0,0 l/m 25,2 km/h (4 Bft) SO 135 0 min 0 W/m -4,8 C -10,2 C 25,2 km/h (4 Bft)
24.03.2013 17:45 1,1 C 63 % 1023,5 hPa 0,0 l/m 29,3 km/h (5 Bft) SO 125 0 min 0 W/m -5,1 C -11,7 C 29,3 km/h (5 Bft)
24.03.2013 18:00 0,9 C 65 % 1023,5 hPa 0,0 l/m 22,2 km/h (4 Bft) O-SO 110 0 min 0 W/m -4,9 C -9,4 C 22,2 km/h (4 Bft)
24.03.2013 18:15 0,7 C 66 % 1023,5 hPa 0,0 l/m 33,6 km/h (5 Bft) SO 140 0 min 0 W/m -4,9 C -13,4 C 33,6 km/h (5 Bft)
24.03.2013 18:30 0,6 C 67 % 1023,5 hPa 0,0 l/m 30,1 km/h (5 Bft) SO 125 0 min 0 W/m -4,8 C -12,6 C 30,1 km/h (5 Bft)
24.03.2013 18:45 0,3 C 69 % 1023,5 hPa 0,0 l/m 26,1 km/h (4 Bft) O-SO 105 0 min 0 W/m -4,7 C -11,7 C 26,1 km/h (4 Bft)
24.03.2013 19:00 0,3 C 70 % 1023,5 hPa 0,0 l/m 25,7 km/h (4 Bft) O-SO 105 0 min 0 W/m -4,5 C -11,6 C 25,7 km/h (4 Bft)
24.03.2013 19:16 0,1 C 71 % 1023,5 hPa 0,0 l/m 27,3 km/h (5 Bft) O-SO 120 0 min 0 W/m -4,5 C -12,4 C 27,3 km/h (5 Bft)
24.03.2013 19:30 -0,2 C 72 % 1023,5 hPa 0,0 l/m 33,5 km/h (5 Bft) O-SO 110 0 min 0 W/m -4,6 C -14,7 C 33,5 km/h (5 Bft)
24.03.2013 19:45 -0,2 C 72 % 1023,5 hPa 0,0 l/m 27,8 km/h (5 Bft) O-SO 120 0 min 0 W/m -4,6 C -13,0 C 27,8 km/h (5 Bft)
24.03.2013 20:00 -0,4 C 73 % 1023,5 hPa 0,0 l/m 29,8 km/h (5 Bft) SO 125 0 min 0 W/m -4,6 C -13,9 C 29,8 km/h (5 Bft)
24.03.2013 20:15 -0,4 C 74 % 1023,5 hPa 0,0 l/m 28,0 km/h (5 Bft) O-SO 105 0 min 0 W/m -4,5 C -13,3 C 28,0 km/h (5 Bft)
24.03.2013 20:30 -0,4 C 74 % 1023,5 hPa 0,0 l/m 27,5 km/h (5 Bft) O-SO 115 0 min 0 W/m -4,5 C -13,2 C 27,5 km/h (5 Bft)
24.03.2013 20:45 -0,6 C 74 % 1023,5 hPa 0,0 l/m 38,4 km/h (6 Bft) O-SO 105 0 min 0 W/m -4,6 C -16,5 C 38,4 km/h (6 Bft)
24.03.2013 21:00 -0,6 C 74 % 1023,5 hPa 0,0 l/m 30,6 km/h (5 Bft) O-SO 120 0 min 0 W/m -4,6 C -14,4 C 30,6 km/h (5 Bft)
24.03.2013 21:15 -0,6 C 75 % 1023,5 hPa 0,0 l/m 28,6 km/h (5 Bft) O-SO 105 0 min 0 W/m -4,5 C -13,8 C 28,6 km/h (5 Bft)
24.03.2013 21:30 -0,7 C 74 % 1023,5 hPa 0,0 l/m 23,5 km/h (4 Bft) SO 130 0 min 0 W/m -4,7 C -12,1 C 23,5 km/h (4 Bft)
24.03.2013 21:45 -0,7 C 75 % 1023,5 hPa 0,0 l/m 24,1 km/h (4 Bft) O-SO 115 0 min 0 W/m -4,6 C -12,3 C 24,1 km/h (4 Bft)
24.03.2013 22:00 -0,8 C 75 % 1023,5 hPa 0,0 l/m 30,7 km/h (5 Bft) O-SO 105 0 min 0 W/m -4,7 C -14,7 C 30,7 km/h (5 Bft)
24.03.2013 22:15 -0,8 C 75 % 1023,5 hPa 0,0 l/m 29,5 km/h (5 Bft) O 95 0 min 0 W/m -4,7 C -14,4 C 29,5 km/h (5 Bft)
24.03.2013 22:30 -0,9 C 75 % 1023,5 hPa 0,0 l/m 30,2 km/h (5 Bft) SO 130 0 min 0 W/m -4,8 C -14,7 C 30,2 km/h (5 Bft)
24.03.2013 22:45 -1,0 C 75 % 1023,5 hPa 0,0 l/m 28,1 km/h (5 Bft) SO 125 0 min 0 W/m -4,9 C -14,2 C 28,1 km/h (5 Bft)
24.03.2013 23:00 -1,0 C 76 % 1023,5 hPa 0,0 l/m 34,6 km/h (5 Bft) O-SO 115 0 min 0 W/m -4,7 C -16,1 C 34,6 km/h (5 Bft)
24.03.2013 23:15 -1,0 C 76 % 1023,5 hPa 0,0 l/m 24,0 km/h (4 Bft) SO 140 0 min 0 W/m -4,7 C -12,7 C 24,0 km/h (4 Bft)
24.03.2013 23:30 -1,1 C 76 % 1023,5 hPa 0,0 l/m 27,7 km/h (5 Bft) O-SO 120 0 min 0 W/m -4,8 C -14,2 C 27,7 km/h (5 Bft)
24.03.2013 23:45 -1,2 C 75 % 1023,5 hPa 0,0 l/m 28,0 km/h (5 Bft) O 100 0 min 0 W/m -5,0 C -14,4 C 28,0 km/h (5 Bft)
_ Min-Zeit 06:31 14:00 15:01 - 07:16 - - - - 08:30 04:31 07:16
Minimum _ -3,5 C 54 % 1023,5 hPa - 21,6 km/h (4 Bft) - - - - -9,0 C -20,8 C 21,6 km/h (4 Bft)
_ Max-Zeit 13:45 23:00 00:00 12:45 16:30 - - 00:00 00:00 15:46 15:46 16:30
Maximum _ 3,2 C 76 % 1026,5 hPa 0,3 l/m 41,7 km/h
SO (6 Bft)
- - 0 min 0 W/m -4,4 C -7,6 C 41,7 km/h
SO (6 Bft)
Durchschnitt _ -0,8 C 66 % 1024,9 hPa #0,3 l/m 29,7 km/h (5 Bft) SO - #0 min. 0 W/m -6,5 C -14,3 C 29,7 km/h (5 Bft)
copyright by Holger Just